Time;durP1;ratioP1;P1;durP2;ratioP2;P2;SDS_P1;SDS_P2;PMS_P1;PMS_P2;Temp;Humidity;BMP_temperature;BMP_pressure;BME280_temperature;BME280_humidity;BME280_pressure;Samples;Min_cycle;Max_cycle;Signal;HPM_P1;HPM_P2
2024/03/12 00:01:08;;;;;;;22.67;16.13;;;9.30;99.10;;;;;;5072500;28;20658;-59
2024/03/12 00:03:42;;;;;;;24.43;15.60;;;9.30;99.20;;;;;;5071203;28;20212;-59
2024/03/12 00:06:11;;;;;;;22.33;15.57;;;9.30;99.20;;;;;;5070263;28;20541;-58
2024/03/12 00:08:39;;;;;;;25.13;15.97;;;9.40;99.20;;;;;;5072023;28;20224;-58
2024/03/12 00:11:07;;;;;;;20.50;15.80;;;9.30;99.20;;;;;;5071294;28;20277;-58
2024/03/12 00:13:35;;;;;;;26.10;16.47;;;9.30;99.20;;;;;;5072087;28;20203;-58
2024/03/12 00:16:03;;;;;;;21.23;15.63;;;9.30;99.20;;;;;;5069472;28;20203;-58
2024/03/12 00:18:32;;;;;;;21.10;15.67;;;9.30;99.30;;;;;;5069767;28;20199;-58
2024/03/12 00:21:01;;;;;;;21.93;16.30;;;9.30;99.30;;;;;;5077398;28;20204;-58
2024/03/12 00:23:28;;;;;;;22.10;15.53;;;9.30;99.20;;;;;;5067779;28;20189;-59
2024/03/12 00:25:56;;;;;;;22.73;15.57;;;9.20;99.20;;;;;;5071771;28;20253;-58
2024/03/12 00:28:23;;;;;;;21.93;16.40;;;9.20;99.30;;;;;;5069357;28;20525;-58
2024/03/12 00:30:53;;;;;;;22.73;15.47;;;9.20;99.40;;;;;;5070098;28;20668;-58
2024/03/12 00:33:21;;;;;;;22.50;16.80;;;9.20;99.40;;;;;;5071597;28;20226;-59
2024/03/12 00:35:49;;;;;;;23.70;16.57;;;9.20;99.50;;;;;;5070407;28;20195;-59
2024/03/12 00:38:17;;;;;;;24.33;16.93;;;9.20;99.50;;;;;;5069927;28;20196;-59
2024/03/12 00:40:47;;;;;;;21.80;17.10;;;9.20;99.60;;;;;;5071670;28;20219;-59
2024/03/12 00:43:15;;;;;;;25.67;18.27;;;9.20;99.60;;;;;;5069967;28;20212;-59
2024/03/12 00:45:44;;;;;;;22.47;16.13;;;9.20;99.60;;;;;;5068618;28;20569;-59
2024/03/12 00:48:17;;;;;;;26.27;15.07;;;9.20;99.60;;;;;;5071417;28;20205;-59
2024/03/12 00:50:46;;;;;;;21.83;16.83;;;9.20;99.60;;;;;;5071641;28;20295;-58
2024/03/12 00:53:13;;;;;;;25.63;15.60;;;9.20;99.60;;;;;;5072200;28;20283;-59
2024/03/12 00:55:41;;;;;;;20.87;16.30;;;9.10;99.60;;;;;;5069913;28;20574;-59
2024/03/12 00:58:12;;;;;;;22.60;17.37;;;9.20;99.60;;;;;;5071079;28;20543;-59
2024/03/12 01:00:40;;;;;;;22.20;16.63;;;9.20;99.60;;;;;;5071472;28;20250;-59
2024/03/12 01:03:08;;;;;;;23.20;16.73;;;9.20;99.70;;;;;;5069458;28;20686;-59
2024/03/12 01:05:37;;;;;;;23.37;15.70;;;9.20;99.70;;;;;;5070814;28;20207;-59
2024/03/12 01:08:06;;;;;;;20.83;16.33;;;9.20;99.70;;;;;;5068237;28;20577;-59
2024/03/12 01:10:34;;;;;;;24.80;16.67;;;9.10;99.60;;;;;;5071363;28;20325;-59
2024/03/12 01:13:05;;;;;;;24.83;15.67;;;9.10;99.60;;;;;;5070476;28;20201;-59
2024/03/12 01:15:34;;;;;;;21.33;15.57;;;9.10;99.60;;;;;;5071889;28;20689;-59
2024/03/12 01:18:03;;;;;;;23.27;16.07;;;9.10;99.50;;;;;;5070123;28;20189;-59
2024/03/12 01:20:33;;;;;;;20.03;15.80;;;9.00;99.40;;;;;;5067989;28;20285;-59
2024/03/12 01:23:04;;;;;;;30.43;18.27;;;8.90;99.60;;;;;;5068857;28;20289;-59
2024/03/12 01:25:34;;;;;;;20.80;15.60;;;8.80;99.30;;;;;;5072664;28;20207;-59
2024/03/12 01:28:05;;;;;;;21.83;16.13;;;8.80;99.40;;;;;;5067059;28;20201;-59
2024/03/12 01:30:36;;;;;;;21.73;15.43;;;8.80;99.40;;;;;;5063996;28;20211;-59
2024/03/12 01:33:05;;;;;;;20.33;14.30;;;8.80;99.50;;;;;;5069872;28;20260;-59
2024/03/12 01:35:37;;;;;;;23.77;16.20;;;8.80;99.50;;;;;;5068719;28;20541;-59
2024/03/12 01:38:08;;;;;;;23.10;15.47;;;8.70;99.50;;;;;;5069873;28;20205;-59
2024/03/12 01:40:38;;;;;;;25.03;15.27;;;8.70;99.60;;;;;;5070479;28;20203;-59
2024/03/12 01:43:08;;;;;;;24.23;16.77;;;8.70;99.60;;;;;;5070674;28;20287;-59
2024/03/12 01:45:36;;;;;;;21.70;15.90;;;8.60;99.50;;;;;;5068674;28;20724;-59
2024/03/12 01:48:06;;;;;;;20.53;15.77;;;8.50;99.50;;;;;;5068648;28;20224;-58
2024/03/12 01:50:36;;;;;;;23.77;15.87;;;8.50;99.50;;;;;;5067554;28;20282;-59
2024/03/12 01:53:07;;;;;;;24.00;16.37;;;8.40;99.50;;;;;;5068610;28;20208;-59
2024/03/12 01:55:38;;;;;;;19.17;15.37;;;8.40;99.50;;;;;;5071817;28;20211;-59
2024/03/12 01:58:06;;;;;;;23.97;17.80;;;8.30;99.60;;;;;;5071742;28;20198;-59
2024/03/12 02:00:34;;;;;;;21.60;16.37;;;8.30;99.70;;;;;;5071625;28;20252;-59
2024/03/12 02:03:01;;;;;;;22.43;16.50;;;8.30;99.70;;;;;;5069263;28;20202;-59
2024/03/12 02:05:29;;;;;;;23.27;16.73;;;8.30;99.80;;;;;;5075290;28;20287;-59
2024/03/12 02:07:56;;;;;;;18.67;15.70;;;8.20;99.80;;;;;;5072736;28;20569;-59
2024/03/12 02:10:24;;;;;;;24.00;16.00;;;8.20;99.90;;;;;;5073149;28;20225;-58
2024/03/12 02:12:52;;;;;;;23.57;15.17;;;8.20;99.90;;;;;;5076368;28;20216;-59
2024/03/12 02:15:22;;;;;;;21.43;16.20;;;8.20;99.90;;;;;;5073294;28;20274;-59
2024/03/12 02:17:53;;;;;;;24.83;17.23;;;8.20;99.90;;;;;;5075636;28;20286;-59
2024/03/12 02:20:21;;;;;;;27.60;18.60;;;8.10;99.90;;;;;;5071522;28;20210;-59
2024/03/12 02:22:55;;;;;;;24.17;17.63;;;8.10;99.90;;;;;;5072568;28;20219;-59
2024/03/12 02:25:23;;;;;;;20.23;14.57;;;8.10;99.90;;;;;;5072433;28;20240;-59
2024/03/12 02:27:51;;;;;;;22.80;16.30;;;8.00;99.90;;;;;;5090455;28;20217;-59
2024/03/12 02:30:20;;;;;;;18.90;14.90;;;8.00;99.90;;;;;;5068730;28;20213;-59
2024/03/12 02:32:48;;;;;;;23.83;16.97;;;8.00;99.90;;;;;;5068744;28;20196;-59
2024/03/12 02:35:16;;;;;;;22.17;16.13;;;7.90;99.90;;;;;;5070775;28;20203;-59
2024/03/12 02:37:44;;;;;;;24.03;17.00;;;7.90;99.90;;;;;;5069703;28;20634;-59
2024/03/12 02:40:12;;;;;;;24.77;17.90;;;7.80;99.90;;;;;;5071480;28;20230;-58
2024/03/12 02:42:42;;;;;;;23.90;16.10;;;7.80;99.90;;;;;;5073060;28;20209;-59
2024/03/12 02:45:15;;;;;;;23.20;17.37;;;7.70;99.90;;;;;;5066930;28;20226;-58
2024/03/12 02:47:44;;;;;;;24.60;17.63;;;7.70;99.90;;;;;;5071892;28;20203;-59
2024/03/12 02:50:15;;;;;;;26.10;17.43;;;7.70;99.90;;;;;;5070919;28;20317;-58
2024/03/12 02:52:44;;;;;;;27.37;17.00;;;7.70;99.90;;;;;;5073803;28;20195;-58
2024/03/12 02:55:12;;;;;;;24.53;16.57;;;7.70;99.90;;;;;;5071968;28;20192;-59
2024/03/12 02:57:40;;;;;;;29.93;18.23;;;7.70;99.90;;;;;;5074065;28;20206;-59
2024/03/12 03:00:11;;;;;;;26.33;18.57;;;7.60;99.90;;;;;;5071505;28;20284;-58
2024/03/12 03:02:41;;;;;;;23.27;16.17;;;7.60;99.90;;;;;;5077859;28;20208;-58
2024/03/12 03:05:11;;;;;;;26.60;16.23;;;7.60;99.90;;;;;;5072165;28;20848;-58
2024/03/12 03:07:41;;;;;;;19.90;14.03;;;7.60;99.90;;;;;;5072026;28;20199;-58
2024/03/12 03:10:10;;;;;;;21.97;15.70;;;7.60;99.90;;;;;;5073796;28;20217;-59
2024/03/12 03:12:39;;;;;;;22.57;16.80;;;7.70;99.90;;;;;;5069646;28;20204;-59
2024/03/12 03:15:11;;;;;;;24.07;17.57;;;7.70;99.90;;;;;;5073399;28;20692;-59
2024/03/12 03:17:43;;;;;;;22.77;15.90;;;7.70;99.90;;;;;;5072149;28;20189;-59
2024/03/12 03:20:12;;;;;;;21.97;16.60;;;7.70;99.90;;;;;;5068955;28;20232;-58
2024/03/12 03:22:39;;;;;;;23.33;16.40;;;7.70;99.90;;;;;;5087725;28;20204;-59
2024/03/12 03:25:08;;;;;;;23.23;15.83;;;7.70;99.90;;;;;;5074109;28;20202;-59
2024/03/12 03:27:35;;;;;;;19.43;15.17;;;7.70;99.90;;;;;;5071263;28;20205;-58
2024/03/12 03:30:03;;;;;;;28.27;17.10;;;7.70;99.90;;;;;;5072277;28;20232;-58
2024/03/12 03:32:30;;;;;;;20.57;15.00;;;7.70;99.90;;;;;;5069263;28;20200;-59
2024/03/12 03:34:58;;;;;;;22.83;14.47;;;7.70;99.90;;;;;;5057792;28;20543;-59
2024/03/12 03:37:30;;;;;;;20.53;15.60;;;7.70;99.90;;;;;;5074700;28;20198;-59
2024/03/12 03:39:58;;;;;;;17.90;13.87;;;7.70;99.90;;;;;;5076192;28;20200;-59
2024/03/12 03:42:25;;;;;;;22.57;14.70;;;7.70;99.90;;;;;;5074506;28;20213;-58
2024/03/12 03:44:53;;;;;;;18.57;13.13;;;7.60;99.90;;;;;;5064175;28;20299;-59
2024/03/12 03:47:20;;;;;;;19.27;13.33;;;7.60;99.90;;;;;;5073874;28;20205;-59
2024/03/12 03:49:48;;;;;;;21.47;13.90;;;7.50;99.90;;;;;;5072685;28;20305;-58
2024/03/12 03:52:15;;;;;;;19.70;15.30;;;7.50;99.90;;;;;;5074993;28;20201;-59
2024/03/12 03:54:43;;;;;;;19.50;14.23;;;7.60;99.90;;;;;;5072827;28;20610;-59
2024/03/12 03:57:10;;;;;;;20.83;13.23;;;7.60;99.90;;;;;;5074675;28;20202;-59
2024/03/12 03:59:38;;;;;;;17.10;13.43;;;7.60;99.90;;;;;;5088546;28;20685;-59
2024/03/12 04:02:05;;;;;;;19.70;13.17;;;7.60;99.90;;;;;;5077866;28;20255;-58
2024/03/12 04:04:34;;;;;;;20.07;13.60;;;7.60;99.90;;;;;;5058604;28;20796;-59
2024/03/12 04:07:01;;;;;;;17.20;11.63;;;7.60;99.90;;;;;;5071470;28;20609;-59
2024/03/12 04:09:30;;;;;;;14.83;10.73;;;7.60;99.90;;;;;;5073957;28;20254;-59
2024/03/12 04:11:57;;;;;;;15.57;10.60;;;7.60;99.90;;;;;;5070493;28;20197;-59
2024/03/12 04:14:25;;;;;;;13.73;10.77;;;7.60;99.90;;;;;;5073816;28;20202;-59
2024/03/12 04:16:52;;;;;;;14.87;9.67;;;7.50;99.90;;;;;;5070755;28;20198;-58
2024/03/12 04:19:19;;;;;;;15.30;9.03;;;7.50;99.90;;;;;;5073674;28;20201;-58
2024/03/12 04:21:48;;;;;;;11.87;9.07;;;7.50;99.90;;;;;;5067062;28;20194;-59
2024/03/12 04:24:16;;;;;;;11.53;8.60;;;7.50;99.90;;;;;;5071658;28;20270;-58
2024/03/12 04:26:45;;;;;;;11.00;8.80;;;7.40;99.90;;;;;;5073424;28;20190;-59
2024/03/12 04:29:12;;;;;;;14.30;8.07;;;7.50;99.90;;;;;;5072392;28;20226;-58
2024/03/12 04:31:40;;;;;;;9.40;7.10;;;7.50;99.90;;;;;;5068357;28;20550;-59
2024/03/12 04:34:08;;;;;;;12.90;7.43;;;7.50;99.90;;;;;;5072238;28;20524;-59
2024/03/12 04:36:36;;;;;;;9.63;7.03;;;7.50;99.90;;;;;;5070849;28;20200;-58
2024/03/12 04:41:50;;;;;;;8.23;6.77;;;7.50;99.90;;;;;;5074047;28;20631;-58
2024/03/12 04:44:18;;;;;;;10.50;6.97;;;7.50;99.90;;;;;;5070471;28;20293;-59
2024/03/12 04:46:45;;;;;;;10.20;7.07;;;7.50;99.90;;;;;;5074971;28;20206;-58
2024/03/12 04:49:13;;;;;;;10.03;6.73;;;7.50;99.90;;;;;;5073670;28;20210;-59
2024/03/12 04:51:40;;;;;;;11.97;6.40;;;7.50;99.90;;;;;;5073686;28;20635;-59
2024/03/12 04:54:08;;;;;;;10.13;6.80;;;7.50;99.90;;;;;;5071062;28;20191;-59
2024/03/12 04:56:35;;;;;;;9.07;6.53;;;7.50;99.90;;;;;;5073539;28;20322;-58
2024/03/12 04:59:03;;;;;;;8.50;5.97;;;7.50;99.90;;;;;;5073521;28;20228;-58
2024/03/12 05:01:31;;;;;;;6.43;5.33;;;7.50;99.90;;;;;;5074129;28;20259;-59
2024/03/12 05:03:59;;;;;;;8.47;6.30;;;7.50;99.90;;;;;;5067799;28;20549;-58
2024/03/12 05:06:39;;;;;;;11.07;5.87;;;7.50;99.90;;;;;;5073053;28;20307;-58
2024/03/12 05:09:07;;;;;;;7.10;4.90;;;7.40;99.90;;;;;;5073372;28;20200;-58
2024/03/12 05:11:37;;;;;;;6.00;4.90;;;7.40;99.90;;;;;;5070765;28;20214;-59
2024/03/12 05:14:06;;;;;;;9.17;5.67;;;7.40;99.90;;;;;;5073471;28;20185;-58
2024/03/12 05:16:33;;;;;;;9.07;5.37;;;7.40;99.90;;;;;;5070336;28;20213;-59
2024/03/12 05:19:00;;;;;;;7.07;4.70;;;7.40;99.90;;;;;;5070424;28;20292;-59
2024/03/12 05:21:28;;;;;;;10.70;5.23;;;7.40;99.90;;;;;;5068817;28;20208;-59
2024/03/12 05:23:58;;;;;;;6.53;4.80;;;7.40;99.90;;;;;;5072474;28;20704;-58
2024/03/12 05:26:26;;;;;;;7.10;5.33;;;7.40;99.90;;;;;;5070618;28;20578;-58
2024/03/12 05:28:54;;;;;;;8.93;4.87;;;7.40;99.90;;;;;;5074926;28;20197;-59
2024/03/12 05:31:29;;;;;;;6.47;5.67;;;7.30;99.90;;;;;;5073947;28;20306;-59
2024/03/12 05:33:59;;;;;;;8.53;4.83;;;7.30;99.90;;;;;;5075277;28;20197;-58
2024/03/12 05:36:40;;;;;;;10.13;5.87;;;7.30;99.90;;;;;;5074445;28;20230;-59
2024/03/12 05:39:18;;;;;;;10.77;5.17;;;7.30;99.90;;;;;;5076821;28;20201;-59
2024/03/12 05:48:06;;;;;;;6.53;5.70;;;7.30;99.90;;;;;;5075775;28;20237;-59
2024/03/12 05:50:16;;;;;;;7.43;5.07;;;7.30;99.90;;;;;;5075794;28;20233;-59
2024/03/12 05:52:48;;;;;;;7.47;4.57;;;7.30;99.90;;;;;;5073169;28;20198;-58
2024/03/12 05:55:15;;;;;;;8.23;5.10;;;7.40;99.90;;;;;;5074047;28;20246;-58
2024/03/12 05:57:46;;;;;;;6.47;4.63;;;7.40;99.90;;;;;;5074290;28;20252;-59
2024/03/12 06:00:14;;;;;;;13.77;5.60;;;7.50;99.90;;;;;;5073167;28;20629;-58
2024/03/12 06:02:41;;;;;;;7.67;5.10;;;7.50;99.90;;;;;;5074015;28;20216;-58
2024/03/12 06:05:14;;;;;;;8.87;5.07;;;7.60;99.90;;;;;;5076753;28;20202;-58
2024/03/12 06:07:48;;;;;;;6.60;5.10;;;7.80;99.90;;;;;;5074731;28;20205;-59
2024/03/12 06:10:16;;;;;;;6.13;4.80;;;8.10;99.90;;;;;;5073001;28;20212;-59
2024/03/12 06:12:44;;;;;;;7.23;4.40;;;8.30;99.90;;;;;;5075799;28;20209;-59
2024/03/12 06:15:11;;;;;;;10.60;5.20;;;8.40;99.90;;;;;;5072138;28;20290;-59
2024/03/12 06:17:38;;;;;;;10.83;4.83;;;8.50;99.50;;;;;;5073860;28;20206;-59
2024/03/12 06:20:05;;;;;;;8.13;4.67;;;8.60;99.40;;;;;;5072574;28;20203;-59
2024/03/12 06:22:37;;;;;;;8.13;4.70;;;8.70;99.30;;;;;;5071235;28;20214;-59
2024/03/12 06:25:05;;;;;;;6.43;4.97;;;8.70;99.20;;;;;;5072573;28;20237;-59
2024/03/12 06:27:33;;;;;;;6.73;5.13;;;8.80;99.10;;;;;;5074739;28;20191;-59
2024/03/12 06:30:00;;;;;;;6.40;3.93;;;8.80;99.10;;;;;;5071206;28;20204;-59
2024/03/12 06:32:31;;;;;;;7.33;5.20;;;8.80;99.10;;;;;;5074677;28;20278;-58
2024/03/12 06:34:59;;;;;;;5.90;4.40;;;8.80;99.10;;;;;;5071609;28;20260;-59
2024/03/12 06:37:29;;;;;;;8.27;4.77;;;8.80;99.10;;;;;;5071171;28;20262;-59
2024/03/12 06:39:57;;;;;;;5.27;4.37;;;8.80;99.00;;;;;;5072354;28;20202;-59
2024/03/12 06:42:26;;;;;;;6.93;4.77;;;8.80;98.90;;;;;;5069841;28;20203;-58
2024/03/12 06:44:54;;;;;;;4.70;3.87;;;8.90;99.00;;;;;;5073519;28;20274;-59
2024/03/12 06:47:22;;;;;;;5.17;4.40;;;8.90;98.90;;;;;;5073370;28;20274;-59
2024/03/12 06:49:49;;;;;;;8.40;4.57;;;9.00;98.80;;;;;;5070860;28;20187;-59
2024/03/12 06:52:17;;;;;;;5.60;3.73;;;9.10;98.80;;;;;;5073570;28;20235;-59
2024/03/12 06:54:44;;;;;;;7.63;4.23;;;9.10;98.70;;;;;;5071280;28;20568;-59
2024/03/12 06:57:12;;;;;;;7.43;3.60;;;9.10;98.80;;;;;;5072602;28;20519;-59
2024/03/12 06:59:47;;;;;;;4.20;3.77;;;9.20;98.80;;;;;;5069856;28;20236;-59
2024/03/12 07:02:17;;;;;;;7.07;4.97;;;9.30;98.80;;;;;;5089625;28;20665;-59
2024/03/12 07:04:48;;;;;;;6.40;4.80;;;9.40;98.80;;;;;;5074079;28;20198;-58
2024/03/12 07:07:19;;;;;;;6.27;5.27;;;9.40;99.00;;;;;;5068637;28;20197;-58
2024/03/12 07:09:47;;;;;;;6.70;5.23;;;9.50;98.70;;;;;;5073435;28;20261;-58
2024/03/12 07:12:16;;;;;;;6.90;4.73;;;9.60;98.60;;;;;;5069174;28;20211;-59
2024/03/12 07:14:45;;;;;;;8.13;4.80;;;9.70;98.60;;;;;;5073490;28;20216;-58
2024/03/12 07:17:14;;;;;;;8.73;5.00;;;9.80;98.50;;;;;;5070293;28;21921;-58
2024/03/12 07:19:43;;;;;;;4.80;4.40;;;9.80;98.40;;;;;;5071310;28;20212;-59
2024/03/12 07:22:10;;;;;;;7.23;4.93;;;9.90;98.30;;;;;;5072080;28;20220;-59
2024/03/12 07:24:39;;;;;;;6.27;4.50;;;10.00;98.30;;;;;;5080367;28;20642;-59
2024/03/12 07:27:08;;;;;;;5.90;4.93;;;10.10;98.30;;;;;;5086685;28;20208;-59
2024/03/12 07:29:36;;;;;;;8.67;5.10;;;10.20;98.00;;;;;;5069512;28;20235;-59
2024/03/12 07:32:04;;;;;;;8.33;5.43;;;10.30;97.90;;;;;;5071807;28;20297;-59
2024/03/12 07:34:32;;;;;;;8.33;5.90;;;10.40;97.80;;;;;;5069241;28;20221;-59
2024/03/12 07:37:00;;;;;;;7.30;5.93;;;10.40;97.70;;;;;;5072404;28;20211;-59
2024/03/12 07:39:34;;;;;;;7.10;5.60;;;10.50;97.60;;;;;;5070908;28;20204;-59
2024/03/12 07:42:09;;;;;;;5.83;5.23;;;10.70;97.60;;;;;;5072786;28;20216;-59
2024/03/12 07:44:41;;;;;;;7.67;5.30;;;10.80;97.60;;;;;;5072293;28;20209;-59
2024/03/12 07:47:09;;;;;;;8.40;5.17;;;11.00;97.60;;;;;;5069020;28;20526;-59
2024/03/12 07:49:37;;;;;;;7.73;5.87;;;11.20;97.50;;;;;;5078050;28;20192;-59
2024/03/12 07:52:05;;;;;;;7.67;5.47;;;11.30;97.40;;;;;;5078677;28;20262;-59
2024/03/12 07:54:33;;;;;;;7.37;6.13;;;11.50;97.30;;;;;;5070999;28;20205;-59
2024/03/12 07:57:01;;;;;;;7.53;5.40;;;11.70;97.20;;;;;;5072989;28;20254;-59
2024/03/12 07:59:31;;;;;;;6.10;5.23;;;11.90;97.10;;;;;;5072186;28;20221;-59
2024/03/12 08:01:59;;;;;;;5.87;5.07;;;12.20;97.00;;;;;;5071826;28;20202;-59
2024/03/12 08:04:26;;;;;;;7.57;5.30;;;12.30;96.80;;;;;;5070681;28;20196;-59
2024/03/12 08:06:54;;;;;;;7.87;6.13;;;12.50;96.60;;;;;;5071877;28;20196;-59
2024/03/12 08:09:21;;;;;;;8.47;5.50;;;12.60;96.20;;;;;;5080074;28;20279;-59
2024/03/12 08:11:48;;;;;;;8.60;5.40;;;12.80;95.80;;;;;;5070557;28;20286;-59
2024/03/12 08:14:17;;;;;;;5.63;5.00;;;12.90;95.50;;;;;;5069968;28;20190;-59
2024/03/12 08:16:45;;;;;;;7.23;5.03;;;13.10;95.20;;;;;;5071970;28;20205;-59
2024/03/12 08:19:12;;;;;;;8.03;5.13;;;13.20;94.80;;;;;;5073074;28;20254;-59
2024/03/12 08:21:40;;;;;;;5.90;5.00;;;13.40;94.70;;;;;;5069974;28;20292;-59
2024/03/12 08:24:10;;;;;;;6.07;5.47;;;13.50;94.30;;;;;;5072887;28;20530;-59
2024/03/12 08:26:37;;;;;;;6.07;5.40;;;13.60;94.00;;;;;;5068024;28;20307;-59
2024/03/12 08:29:05;;;;;;;6.47;5.17;;;13.70;93.90;;;;;;5072681;28;20205;-59
2024/03/12 08:31:34;;;;;;;9.27;5.13;;;13.80;93.30;;;;;;5070528;28;20214;-59
2024/03/12 08:34:14;;;;;;;6.03;5.37;;;14.00;93.00;;;;;;5071146;28;20248;-59
2024/03/12 08:36:42;;;;;;;7.97;5.00;;;14.10;92.30;;;;;;5071179;28;20195;-59
2024/03/12 08:39:11;;;;;;;6.50;4.90;;;14.20;91.60;;;;;;5071010;28;20224;-58
2024/03/12 08:41:39;;;;;;;7.23;4.43;;;14.20;91.40;;;;;;5064165;28;20271;-59
2024/03/12 08:44:07;;;;;;;8.67;5.00;;;14.20;91.20;;;;;;5070728;28;20198;-59
2024/03/12 08:46:35;;;;;;;5.53;4.40;;;14.20;90.80;;;;;;5071854;28;20269;-59
2024/03/12 08:49:05;;;;;;;7.73;5.20;;;14.30;90.70;;;;;;5069437;28;20515;-59
2024/03/12 08:51:35;;;;;;;5.43;4.90;;;14.40;90.50;;;;;;5072612;28;20225;-59
2024/03/12 08:54:04;;;;;;;5.17;4.60;;;14.40;90.20;;;;;;5070796;28;20599;-59
2024/03/12 08:56:35;;;;;;;7.97;5.43;;;14.50;90.40;;;;;;5071615;28;20207;-59
2024/03/12 08:59:06;;;;;;;5.63;5.03;;;14.60;90.70;;;;;;5066660;28;20292;-59
2024/03/12 09:01:33;;;;;;;5.90;4.53;;;14.70;90.40;;;;;;5070578;28;20538;-59
2024/03/12 09:04:03;;;;;;;7.63;4.40;;;14.90;90.10;;;;;;5069609;28;20211;-59
2024/03/12 09:06:32;;;;;;;5.67;4.50;;;15.00;90.20;;;;;;5071838;28;20202;-59
2024/03/12 09:09:00;;;;;;;5.80;4.17;;;15.10;90.20;;;;;;5067617;28;20273;-59
2024/03/12 09:11:27;;;;;;;6.03;4.77;;;15.30;90.00;;;;;;5071854;28;20216;-59
2024/03/12 09:13:54;;;;;;;5.50;4.13;;;15.40;89.70;;;;;;5069700;28;20206;-59
2024/03/12 09:16:22;;;;;;;6.07;4.83;;;15.60;88.00;;;;;;5072556;28;20280;-59
2024/03/12 09:18:49;;;;;;;5.57;4.00;;;15.70;87.00;;;;;;5069071;28;20201;-59
2024/03/12 09:21:18;;;;;;;6.37;4.17;;;15.80;87.70;;;;;;5071805;28;20208;-59
2024/03/12 09:23:46;;;;;;;5.17;3.93;;;15.90;87.50;;;;;;5071112;28;20604;-59
2024/03/12 09:26:27;;;;;;;4.87;4.13;;;16.10;86.60;;;;;;5070980;28;20209;-59
2024/03/12 09:28:57;;;;;;;4.97;3.77;;;16.20;86.60;;;;;;5071445;28;20193;-59
2024/03/12 09:31:25;;;;;;;6.27;4.73;;;16.30;86.00;;;;;;5068573;28;20228;-59
2024/03/12 09:33:52;;;;;;;5.20;3.70;;;16.50;84.40;;;;;;5071645;28;20204;-59
2024/03/12 09:36:20;;;;;;;4.30;3.90;;;16.50;82.60;;;;;;5071493;28;20302;-59
2024/03/12 09:38:50;;;;;;;4.60;4.03;;;16.60;82.60;;;;;;5067750;28;20640;-59
2024/03/12 09:41:21;;;;;;;4.27;3.87;;;16.60;82.40;;;;;;5070164;28;20262;-59
2024/03/12 09:43:48;;;;;;;4.43;3.53;;;16.60;81.10;;;;;;5070954;28;20748;-59
2024/03/12 09:46:16;;;;;;;5.83;4.20;;;16.70;81.90;;;;;;5070846;28;20716;-59
2024/03/12 09:48:46;;;;;;;5.03;4.10;;;16.80;83.10;;;;;;5071616;28;20260;-59
2024/03/12 09:51:13;;;;;;;4.97;4.07;;;16.90;82.30;;;;;;5069913;28;20258;-59
2024/03/12 09:53:42;;;;;;;4.20;3.70;;;17.00;81.20;;;;;;5072211;28;20701;-59
2024/03/12 09:56:11;;;;;;;5.53;3.80;;;17.10;80.90;;;;;;5068757;28;20195;-59
2024/03/12 09:58:38;;;;;;;11.10;4.23;;;17.10;77.50;;;;;;5069686;28;20706;-59
2024/03/12 10:01:08;;;;;;;6.13;3.60;;;17.00;78.80;;;;;;5069749;28;20216;-59
2024/03/12 10:03:35;;;;;;;4.93;4.23;;;17.00;79.00;;;;;;5070414;28;20192;-59
2024/03/12 10:06:03;;;;;;;3.57;3.27;;;17.00;78.30;;;;;;5070893;28;20203;-59
2024/03/12 10:08:31;;;;;;;5.30;4.00;;;17.00;78.50;;;;;;5069404;28;20224;-59
2024/03/12 10:11:02;;;;;;;5.13;3.80;;;17.00;77.40;;;;;;5071401;28;20284;-59
2024/03/12 10:13:30;;;;;;;3.63;3.33;;;17.00;77.40;;;;;;5069119;28;20205;-59
2024/03/12 10:15:59;;;;;;;6.17;3.40;;;17.00;76.20;;;;;;5071865;28;20206;-58
2024/03/12 10:18:33;;;;;;;4.80;3.50;;;17.00;76.70;;;;;;5071901;28;20318;-60
2024/03/12 10:21:01;;;;;;;5.13;3.23;;;17.00;78.80;;;;;;5074514;28;20200;-61
2024/03/12 10:23:31;;;;;;;5.73;3.10;;;17.20;79.60;;;;;;5072501;28;20203;-60
2024/03/12 10:26:07;;;;;;;4.63;3.83;;;17.40;78.70;;;;;;5075794;28;20196;-59
2024/03/12 10:28:34;;;;;;;5.17;3.20;;;17.60;77.20;;;;;;5071159;28;20691;-59
2024/03/12 10:31:08;;;;;;;3.50;2.93;;;17.70;75.80;;;;;;5074082;28;20281;-60
2024/03/12 10:33:48;;;;;;;5.33;2.93;;;17.80;76.80;;;;;;5070257;28;20243;-60
2024/03/12 10:36:32;;;;;;;4.30;2.63;;;17.90;77.00;;;;;;5073469;28;20832;-60
2024/03/12 10:39:06;;;;;;;4.07;3.00;;;17.90;77.50;;;;;;5074480;28;20212;-60
2024/03/12 10:41:34;;;;;;;3.40;2.80;;;18.00;78.00;;;;;;5070678;28;20297;-61
2024/03/12 10:44:10;;;;;;;3.73;2.93;;;18.10;78.10;;;;;;5078183;28;20218;-59
2024/03/12 10:46:44;;;;;;;4.80;3.03;;;18.20;78.40;;;;;;5087660;28;20637;-58
2024/03/12 10:49:12;;;;;;;3.33;2.93;;;18.30;78.40;;;;;;5071310;28;20274;-60
2024/03/12 10:51:42;;;;;;;3.47;2.83;;;18.40;75.70;;;;;;5072593;28;20224;-60
2024/03/12 10:54:16;;;;;;;3.30;3.00;;;18.50;76.10;;;;;;5070874;28;20218;-60
2024/03/12 10:56:46;;;;;;;3.40;2.60;;;18.60;76.50;;;;;;5073445;28;20887;-61
2024/03/12 10:59:16;;;;;;;3.10;2.10;;;18.70;76.90;;;;;;5069785;28;20737;-60
2024/03/12 11:01:43;;;;;;;3.10;2.80;;;18.80;76.20;;;;;;5074203;28;20200;-61
2024/03/12 11:04:13;;;;;;;4.10;2.37;;;19.00;76.10;;;;;;5071749;28;20198;-60
2024/03/12 11:06:40;;;;;;;2.80;2.40;;;19.10;74.70;;;;;;5074145;28;20211;-60
2024/03/12 11:09:11;;;;;;;2.40;2.20;;;19.10;71.40;;;;;;5072569;28;20708;-61
2024/03/12 11:11:39;;;;;;;3.00;2.70;;;19.00;67.80;;;;;;5072914;28;20209;-60
2024/03/12 11:14:07;;;;;;;2.77;2.30;;;18.90;68.10;;;;;;5073155;28;20248;-60
2024/03/12 11:16:35;;;;;;;2.90;2.20;;;18.80;70.60;;;;;;5071798;28;20279;-60
2024/03/12 11:19:20;;;;;;;2.47;1.70;;;18.90;68.90;;;;;;5072740;28;20282;-60
2024/03/12 11:21:49;;;;;;;5.03;2.00;;;18.90;69.40;;;;;;5069224;28;20216;-59
2024/03/12 11:24:44;;;;;;;2.20;2.00;;;19.00;67.30;;;;;;5071581;28;20221;-61
2024/03/12 11:27:34;;;;;;;2.13;2.03;;;19.00;67.60;;;;;;5073148;28;20304;-60
2024/03/12 11:30:04;;;;;;;3.27;2.00;;;19.10;67.30;;;;;;5072725;28;20237;-60
2024/03/12 11:32:48;;;;;;;3.60;2.57;;;19.20;67.40;;;;;;5070513;28;20229;-60
2024/03/12 11:35:21;;;;;;;2.37;1.67;;;19.20;66.90;;;;;;5069664;28;20379;-60
2024/03/12 11:38:05;;;;;;;3.43;2.10;;;19.20;65.20;;;;;;5072228;28;20253;-60
2024/03/12 11:40:47;;;;;;;5.10;2.10;;;19.10;65.90;;;;;;5070905;28;20197;-60
2024/03/12 11:43:40;;;;;;;2.10;1.90;;;19.00;66.20;;;;;;5071612;28;20610;-60
2024/03/12 11:46:09;;;;;;;2.90;2.20;;;19.00;67.80;;;;;;5073005;28;20201;-59
2024/03/12 11:48:38;;;;;;;6.27;2.10;;;19.10;68.00;;;;;;5073739;28;20201;-61
2024/03/12 11:51:11;;;;;;;3.80;1.90;;;19.30;66.30;;;;;;5071594;28;20197;-60
2024/03/12 11:53:43;;;;;;;2.83;2.00;;;19.30;66.30;;;;;;5071929;28;20271;-61
2024/03/12 11:56:21;;;;;;;3.70;1.90;;;19.40;64.20;;;;;;5072030;28;20250;-60
2024/03/12 11:58:54;;;;;;;1.90;1.67;;;19.30;63.00;;;;;;5068572;28;20212;-60
2024/03/12 12:01:31;;;;;;;2.10;1.70;;;19.30;63.50;;;;;;5071322;28;20221;-61
2024/03/12 12:04:04;;;;;;;2.60;1.50;;;19.20;62.80;;;;;;5068830;28;20196;-60
2024/03/12 12:06:32;;;;;;;2.50;1.63;;;19.10;62.90;;;;;;5072244;28;20649;-60
2024/03/12 12:09:08;;;;;;;3.17;1.93;;;19.00;63.60;;;;;;5071161;28;20197;-60
2024/03/12 12:11:37;;;;;;;3.83;1.93;;;19.00;64.00;;;;;;5067330;28;20197;-60
2024/03/12 12:14:08;;;;;;;2.07;1.87;;;19.10;64.00;;;;;;5061303;28;20205;-60
2024/03/12 12:16:37;;;;;;;4.00;1.80;;;19.10;63.40;;;;;;5069486;28;20273;-60
2024/03/12 12:19:06;;;;;;;2.77;1.87;;;19.00;63.40;;;;;;5070096;28;20285;-60
2024/03/12 12:21:34;;;;;;;2.97;1.93;;;19.00;64.40;;;;;;5067329;28;20213;-60
2024/03/12 12:24:02;;;;;;;2.40;2.00;;;19.00;65.10;;;;;;5070373;28;20571;-61
2024/03/12 12:26:33;;;;;;;2.10;1.57;;;19.00;65.90;;;;;;5070139;28;20193;-60
2024/03/12 12:29:05;;;;;;;3.30;1.73;;;19.10;65.90;;;;;;5071257;28;20197;-60
2024/03/12 12:31:35;;;;;;;4.27;1.50;;;19.20;64.60;;;;;;5070098;28;20197;-60
2024/03/12 12:34:05;;;;;;;3.20;1.13;;;19.30;64.70;;;;;;5071804;28;20299;-60
2024/03/12 12:36:42;;;;;;;2.33;1.97;;;19.50;64.80;;;;;;5068040;28;20205;-59
2024/03/12 12:39:13;;;;;;;3.70;1.67;;;19.60;64.90;;;;;;5070353;28;20208;-60
2024/03/12 12:41:45;;;;;;;2.57;1.70;;;19.80;65.70;;;;;;5067378;28;20213;-60
2024/03/12 12:44:15;;;;;;;2.87;1.50;;;19.90;64.50;;;;;;5070629;28;20198;-60
2024/03/12 12:46:45;;;;;;;1.63;1.20;;;20.00;62.10;;;;;;5072618;28;20202;-61
2024/03/12 12:49:14;;;;;;;1.60;1.33;;;19.90;61.00;;;;;;5068751;28;20219;-61
2024/03/12 12:51:44;;;;;;;1.40;1.30;;;19.80;62.40;;;;;;5068714;28;20266;-61
2024/03/12 12:54:18;;;;;;;3.10;1.30;;;19.80;60.70;;;;;;5066925;28;20222;-61
2024/03/12 12:56:46;;;;;;;5.27;1.23;;;19.80;60.90;;;;;;5071469;28;20201;-61
2024/03/12 12:59:16;;;;;;;2.63;1.80;;;19.80;62.00;;;;;;5071656;28;20332;-61
2024/03/12 13:01:47;;;;;;;2.93;1.30;;;19.90;61.50;;;;;;5071098;28;20296;-61
2024/03/12 13:04:26;;;;;;;1.93;1.10;;;19.90;61.20;;;;;;5070512;28;20198;-60
2024/03/12 13:06:56;;;;;;;1.30;1.20;;;19.80;61.30;;;;;;5069533;28;20212;-60